Lakeville, New York
Current Conditions -  °F | °C
As of 10:54 PM on Thursday 27 Nov 2014 (Local Time) from KDSV Reporting Station
Light Snow Light Snow  
Wind Chill: 24°   Ceiling: 1000
Heat Index: 29°   Visibility: 9mi
Dew Point: 27°   Wind: 5mph
Humidity: 92%   Direction: 310°NW
Pressure: 30.09"   Gusts: NA
Location:  42.83°N, 77.7°W
Report Text: KDSV 280354Z AUTO 31004KT 9SM -SN FEW006 BKN010 OVC030 M02/M03 A3009 RMK AO2 SLP205 P0000 T10171028
Loading
Personal Weather Stations






























Interactive Weather Map New forecast layout! Learn more

10-Day Weather Forecast

Advertisements
Track Severe Weather on mobile